Time;durP1;ratioP1;P1;durP2;ratioP2;P2;SDS_P1;SDS_P2;PMS_P1;PMS_P2;Temp;Humidity;BMP_temperature;BMP_pressure;BME280_temperature;BME280_humidity;BME280_pressure;Samples;Min_cycle;Max_cycle;Signal;HPM_P1;HPM_P2
2023/06/23 00:01:11;;;;;;;6.05;5.60;;;19.90;99.90;;;;;;5091848;28;20231;-62
2023/06/23 00:03:40;;;;;;;5.90;5.50;;;19.90;99.90;;;;;;5091456;28;20227;-63
2023/06/23 00:06:08;;;;;;;5.55;5.05;;;19.90;99.90;;;;;;5091393;28;20200;-62
2023/06/23 00:08:39;;;;;;;6.13;5.60;;;20.00;99.90;;;;;;5091653;28;20230;-63
2023/06/23 00:11:07;;;;;;;6.28;5.78;;;20.00;99.90;;;;;;5091309;28;20728;-62
2023/06/23 00:13:35;;;;;;;5.85;5.35;;;20.00;99.90;;;;;;5091330;28;20234;-62
2023/06/23 00:16:04;;;;;;;5.93;5.40;;;20.00;99.90;;;;;;5091278;28;20195;-62
2023/06/23 00:18:33;;;;;;;5.60;5.00;;;20.00;99.90;;;;;;5091729;28;20200;-62
2023/06/23 00:21:04;;;;;;;5.85;5.15;;;20.00;99.90;;;;;;5091437;28;20218;-62
2023/06/23 00:23:32;;;;;;;5.78;5.28;;;20.00;99.90;;;;;;5091306;28;20277;-63
2023/06/23 00:25:59;;;;;;;5.78;5.20;;;20.00;99.90;;;;;;5091359;28;20204;-62
2023/06/23 00:28:31;;;;;;;6.43;5.82;;;20.00;99.90;;;;;;5059598;28;20196;-62
2023/06/23 00:30:59;;;;;;;7.60;4.80;;;20.00;99.90;;;;;;5091183;28;20586;-59
2023/06/23 00:33:27;;;;;;;5.40;5.00;;;20.00;99.90;;;;;;5091377;28;20259;-60
2023/06/23 00:35:56;;;;;;;6.15;5.43;;;20.10;99.90;;;;;;5090176;28;20232;-60
2023/06/23 00:38:25;;;;;;;5.22;4.72;;;20.10;99.90;;;;;;5090926;28;20207;-59
2023/06/23 00:40:53;;;;;;;5.82;5.32;;;20.10;99.90;;;;;;5091479;28;20279;-59
2023/06/23 00:43:21;;;;;;;5.07;4.68;;;20.10;99.90;;;;;;5091342;28;20235;-60
2023/06/23 00:45:50;;;;;;;6.13;5.38;;;20.20;99.90;;;;;;5092285;28;20257;-60
2023/06/23 00:48:18;;;;;;;6.32;5.15;;;20.20;99.90;;;;;;5095211;28;20235;-59
2023/06/23 00:50:45;;;;;;;6.75;5.55;;;20.10;99.90;;;;;;5094736;28;20224;-61
2023/06/23 00:53:16;;;;;;;7.30;5.30;;;20.10;99.90;;;;;;5095198;28;20216;-62
2023/06/23 00:55:46;;;;;;;5.57;5.00;;;20.10;99.90;;;;;;5094726;28;20204;-59
2023/06/23 00:58:14;;;;;;;5.55;5.13;;;20.10;99.90;;;;;;5094991;28;20283;-59
2023/06/23 01:00:42;;;;;;;5.50;5.10;;;20.10;99.90;;;;;;5094919;28;20192;-60
2023/06/23 01:03:10;;;;;;;9.93;5.30;;;20.10;99.90;;;;;;5116782;22;20227;-63
2023/06/23 01:05:39;;;;;;;5.30;4.80;;;20.10;99.90;;;;;;5106778;28;20211;-64
2023/06/23 01:08:16;;;;;;;5.72;5.20;;;20.10;99.90;;;;;;5100125;28;20204;-63
2023/06/23 01:10:45;;;;;;;6.75;5.53;;;20.00;99.90;;;;;;5097239;28;20241;-63
2023/06/23 01:13:16;;;;;;;6.10;4.78;;;20.00;99.90;;;;;;5105319;28;20237;-63
2023/06/23 01:15:47;;;;;;;5.40;4.90;;;20.00;99.90;;;;;;5100834;28;20200;-63
2023/06/23 01:18:19;;;;;;;5.43;4.80;;;20.00;99.90;;;;;;5111830;28;20730;-63
2023/06/23 01:20:47;;;;;;;5.65;5.20;;;20.00;99.90;;;;;;5101278;28;20188;-63
2023/06/23 01:23:39;;;;;;;6.78;5.10;;;20.00;99.90;;;;;;5105528;28;20272;-63
2023/06/23 01:26:10;;;;;;;5.35;4.95;;;19.90;99.90;;;;;;5107264;28;20233;-63
2023/06/23 01:28:44;;;;;;;5.95;4.60;;;19.90;99.90;;;;;;5101430;28;20248;-64
2023/06/23 01:31:14;;;;;;;5.18;4.78;;;19.90;99.90;;;;;;5105958;28;20243;-63
2023/06/23 01:33:44;;;;;;;5.30;4.90;;;19.90;99.90;;;;;;5109503;28;20246;-63
2023/06/23 01:36:14;;;;;;;5.57;5.07;;;19.90;99.90;;;;;;5099840;28;20192;-63
2023/06/23 01:38:44;;;;;;;5.22;4.82;;;19.80;99.90;;;;;;5101137;28;20233;-64
2023/06/23 01:41:14;;;;;;;5.13;4.57;;;19.90;99.90;;;;;;5106556;28;20218;-63
2023/06/23 01:43:45;;;;;;;6.22;4.90;;;19.90;99.90;;;;;;5109685;28;20246;-63
2023/06/23 01:46:15;;;;;;;6.15;4.72;;;19.90;99.90;;;;;;5098536;28;20792;-63
2023/06/23 01:48:46;;;;;;;5.25;4.85;;;19.90;99.90;;;;;;5109880;28;20196;-63
2023/06/23 01:51:17;;;;;;;5.78;5.03;;;19.90;99.90;;;;;;5105003;28;20253;-64
2023/06/23 01:53:45;;;;;;;5.38;4.97;;;19.90;99.90;;;;;;5107862;28;20219;-63
2023/06/23 01:56:13;;;;;;;5.85;5.35;;;19.90;99.90;;;;;;5101249;28;20204;-63
2023/06/23 01:58:42;;;;;;;5.97;5.38;;;19.90;99.90;;;;;;5109492;28;20211;-63
2023/06/23 02:01:10;;;;;;;9.63;6.05;;;19.90;99.90;;;;;;5104108;28;20195;-63
2023/06/23 02:03:38;;;;;;;5.85;5.28;;;19.90;99.90;;;;;;5100965;28;20228;-63
2023/06/23 02:06:07;;;;;;;8.57;5.50;;;19.90;99.90;;;;;;5111243;28;20272;-63
2023/06/23 02:08:34;;;;;;;8.43;5.32;;;19.90;99.90;;;;;;5099187;28;20199;-63
2023/06/23 02:11:02;;;;;;;5.93;5.07;;;19.90;99.90;;;;;;5105900;28;20747;-63
2023/06/23 02:13:30;;;;;;;6.72;5.20;;;19.90;99.90;;;;;;5107049;28;20373;-63
2023/06/23 02:15:59;;;;;;;8.32;5.40;;;19.90;99.90;;;;;;5097681;28;20623;-63
2023/06/23 02:18:27;;;;;;;5.47;5.07;;;19.90;99.90;;;;;;5094318;28;20228;-63
2023/06/23 02:20:55;;;;;;;6.03;5.43;;;20.00;99.90;;;;;;5104014;28;20196;-63
2023/06/23 02:23:23;;;;;;;5.80;5.40;;;20.00;99.90;;;;;;5104195;28;20247;-63
2023/06/23 02:25:51;;;;;;;5.70;5.10;;;19.90;99.90;;;;;;5109667;28;20242;-63
2023/06/23 02:28:19;;;;;;;5.95;5.43;;;19.90;99.90;;;;;;5097217;28;20200;-63
2023/06/23 02:30:47;;;;;;;5.35;4.93;;;20.00;99.90;;;;;;5108028;28;20551;-63
2023/06/23 02:33:16;;;;;;;6.60;5.07;;;19.90;99.90;;;;;;5104428;28;20261;-63
2023/06/23 02:35:44;;;;;;;5.93;5.35;;;19.90;99.90;;;;;;5101283;28;20203;-64
2023/06/23 02:38:14;;;;;;;5.88;4.93;;;19.90;99.90;;;;;;5098576;28;20714;-63
2023/06/23 02:40:42;;;;;;;5.60;5.10;;;20.00;99.90;;;;;;5108451;28;20204;-63
2023/06/23 02:43:14;;;;;;;5.20;4.80;;;19.90;99.90;;;;;;5103232;28;20652;-63
2023/06/23 02:45:43;;;;;;;6.72;5.20;;;19.90;99.90;;;;;;5099916;28;20200;-63
2023/06/23 02:48:20;;;;;;;5.50;5.05;;;19.90;99.90;;;;;;5110443;28;20222;-62
2023/06/23 02:50:48;;;;;;;5.70;5.13;;;19.90;99.90;;;;;;5100047;28;20610;-64
2023/06/23 02:53:19;;;;;;;7.13;5.60;;;19.90;99.90;;;;;;5103622;28;20281;-64
2023/06/23 02:55:47;;;;;;;6.68;4.70;;;19.90;99.90;;;;;;5108039;28;20238;-63
2023/06/23 02:58:16;;;;;;;5.15;4.75;;;20.00;99.90;;;;;;5097041;28;20204;-63
2023/06/23 03:00:44;;;;;;;5.78;5.28;;;20.00;99.90;;;;;;5107918;28;20192;-63
2023/06/23 03:03:14;;;;;;;5.65;5.10;;;20.00;99.90;;;;;;5093662;28;20227;-63
2023/06/23 03:05:44;;;;;;;6.55;5.85;;;20.00;99.90;;;;;;5097098;28;20728;-63
2023/06/23 03:08:12;;;;;;;7.35;5.78;;;20.00;99.90;;;;;;5109535;28;20682;-63
2023/06/23 03:10:40;;;;;;;6.05;5.53;;;20.00;99.90;;;;;;5098788;28;20622;-63
2023/06/23 03:13:08;;;;;;;5.72;5.20;;;20.00;99.90;;;;;;5104258;28;20252;-63
2023/06/23 03:15:37;;;;;;;6.15;5.65;;;20.00;99.90;;;;;;5105944;28;20674;-63
2023/06/23 03:18:07;;;;;;;6.60;5.95;;;20.00;99.90;;;;;;5097380;28;20203;-63
2023/06/23 03:20:37;;;;;;;8.13;5.13;;;20.00;99.90;;;;;;5108799;28;20282;-64
2023/06/23 03:23:07;;;;;;;7.55;5.93;;;19.90;99.90;;;;;;5102112;28;20306;-65
2023/06/23 03:25:36;;;;;;;6.97;6.40;;;19.90;99.90;;;;;;5100213;28;20265;-65
2023/06/23 03:28:08;;;;;;;6.57;5.85;;;20.00;99.90;;;;;;5109767;28;20252;-64
2023/06/23 03:30:39;;;;;;;7.05;6.15;;;19.90;99.90;;;;;;5097978;28;20199;-64
2023/06/23 03:33:10;;;;;;;7.78;5.70;;;19.90;99.90;;;;;;5103450;28;20228;-64
2023/06/23 03:35:40;;;;;;;7.03;6.43;;;19.90;99.90;;;;;;5105927;28;20203;-64
2023/06/23 03:38:10;;;;;;;7.05;6.47;;;19.90;99.90;;;;;;5110538;28;20203;-64
2023/06/23 03:40:40;;;;;;;6.70;6.15;;;19.80;99.90;;;;;;5098202;28;20191;-65
2023/06/23 03:43:12;;;;;;;6.45;5.95;;;19.80;99.90;;;;;;5104570;28;20278;-65
2023/06/23 03:45:40;;;;;;;7.28;6.20;;;19.80;99.90;;;;;;5107320;28;20235;-64
2023/06/23 03:48:09;;;;;;;6.95;6.38;;;19.80;99.90;;;;;;5097310;28;20211;-65
2023/06/23 03:50:37;;;;;;;9.45;5.93;;;19.80;99.90;;;;;;5108069;28;20235;-63
2023/06/23 03:53:05;;;;;;;8.10;6.00;;;19.80;99.90;;;;;;5098303;28;20309;-64
2023/06/23 03:55:34;;;;;;;5.95;5.45;;;19.80;99.90;;;;;;5108447;28;20244;-63
2023/06/23 03:58:05;;;;;;;6.85;6.15;;;19.80;99.90;;;;;;5092854;28;20273;-64
2023/06/23 04:00:34;;;;;;;7.75;6.95;;;19.80;99.90;;;;;;5108489;28;20227;-63
2023/06/23 04:03:02;;;;;;;8.48;6.50;;;19.70;99.90;;;;;;5100580;28;20225;-63
2023/06/23 04:05:30;;;;;;;7.95;6.93;;;19.70;99.90;;;;;;5099671;28;20200;-64
2023/06/23 04:07:59;;;;;;;7.18;6.50;;;19.60;99.90;;;;;;5108740;28;20659;-64
2023/06/23 04:10:27;;;;;;;6.88;6.18;;;19.60;99.90;;;;;;5092129;28;20196;-64
2023/06/23 04:12:56;;;;;;;7.25;6.55;;;19.50;99.90;;;;;;5099563;28;20317;-64
2023/06/23 04:15:25;;;;;;;7.60;6.32;;;19.50;99.90;;;;;;5101108;28;20232;-65
2023/06/23 04:17:55;;;;;;;8.35;6.65;;;19.50;99.90;;;;;;5105943;28;20252;-64
2023/06/23 04:20:23;;;;;;;7.05;6.35;;;19.40;99.90;;;;;;5109508;28;20195;-65
2023/06/23 04:22:51;;;;;;;5.85;5.35;;;19.40;99.90;;;;;;5110370;28;20212;-64
2023/06/23 04:25:19;;;;;;;6.80;4.93;;;19.40;99.90;;;;;;5106910;28;20558;-64
2023/06/23 04:27:48;;;;;;;6.53;5.10;;;19.50;99.90;;;;;;5101810;28;20231;-64
2023/06/23 04:30:18;;;;;;;5.97;4.72;;;19.40;99.90;;;;;;5113060;28;20239;-64
2023/06/23 04:32:45;;;;;;;5.53;4.22;;;19.40;99.90;;;;;;5102374;28;20219;-64
2023/06/23 04:35:13;;;;;;;4.70;4.30;;;19.30;99.90;;;;;;5109404;28;20207;-64
2023/06/23 04:37:42;;;;;;;4.72;4.30;;;19.30;99.90;;;;;;5117615;28;20199;-63
2023/06/23 04:40:12;;;;;;;5.70;4.82;;;19.30;99.90;;;;;;5108631;28;20629;-60
2023/06/23 04:42:43;;;;;;;4.28;3.97;;;19.30;99.90;;;;;;5101208;28;20247;-60
2023/06/23 04:45:12;;;;;;;7.20;4.35;;;19.30;99.90;;;;;;5104908;28;20655;-61
2023/06/23 04:47:42;;;;;;;8.82;4.93;;;19.30;99.90;;;;;;5108729;28;20207;-59
2023/06/23 04:50:12;;;;;;;6.43;4.90;;;19.20;99.90;;;;;;5098454;28;20200;-61
2023/06/23 04:52:43;;;;;;;4.93;4.53;;;19.20;99.90;;;;;;5110006;28;20646;-61
2023/06/23 04:55:11;;;;;;;5.28;4.72;;;19.20;99.90;;;;;;5104655;28;20718;-61
2023/06/23 04:57:39;;;;;;;4.97;4.28;;;19.20;99.90;;;;;;5101750;28;20239;-60
2023/06/23 05:00:08;;;;;;;6.32;4.78;;;19.20;99.90;;;;;;5111689;28;20227;-59
2023/06/23 05:02:36;;;;;;;4.45;4.05;;;19.10;99.90;;;;;;5099415;28;20253;-60
2023/06/23 05:05:07;;;;;;;4.65;4.32;;;19.20;99.90;;;;;;5106204;28;20287;-61
2023/06/23 05:07:35;;;;;;;5.13;4.50;;;19.20;99.90;;;;;;5107341;28;20267;-60
2023/06/23 05:10:04;;;;;;;4.32;3.92;;;19.20;99.90;;;;;;5102927;28;20204;-61
2023/06/23 05:12:32;;;;;;;8.05;3.80;;;19.20;99.90;;;;;;5107472;28;20264;-61
2023/06/23 05:15:00;;;;;;;5.22;3.90;;;19.20;99.90;;;;;;5106531;28;20192;-61
2023/06/23 05:17:28;;;;;;;4.20;3.90;;;19.20;99.90;;;;;;5106854;28;20235;-61
2023/06/23 05:19:56;;;;;;;5.30;4.35;;;19.20;99.90;;;;;;5099048;28;20238;-60
2023/06/23 05:22:26;;;;;;;6.65;4.25;;;19.20;99.90;;;;;;5111135;28;20694;-61
2023/06/23 05:24:54;;;;;;;6.10;3.97;;;19.20;99.90;;;;;;5101559;28;20198;-60
2023/06/23 05:27:24;;;;;;;4.72;4.15;;;19.30;99.90;;;;;;5103559;28;20208;-61
2023/06/23 05:29:55;;;;;;;4.82;4.40;;;19.30;99.90;;;;;;5109768;28;20690;-61
2023/06/23 05:32:23;;;;;;;7.63;4.50;;;19.30;99.90;;;;;;5097221;28;20706;-61
2023/06/23 05:34:51;;;;;;;4.65;4.25;;;19.30;99.90;;;;;;5107593;28;20220;-61
2023/06/23 05:37:20;;;;;;;6.18;4.45;;;19.30;99.90;;;;;;5095651;28;20196;-61
2023/06/23 05:39:49;;;;;;;5.53;4.63;;;19.30;99.90;;;;;;5108977;28;20264;-61
2023/06/23 05:42:18;;;;;;;7.00;5.05;;;19.30;99.90;;;;;;5097336;28;20263;-61
2023/06/23 05:44:46;;;;;;;5.78;5.28;;;19.30;99.90;;;;;;5107880;28;20195;-61
2023/06/23 05:47:15;;;;;;;5.43;5.03;;;19.20;99.90;;;;;;5103694;28;20199;-61
2023/06/23 05:49:44;;;;;;;8.85;4.68;;;19.20;99.90;;;;;;5100093;28;20204;-60
2023/06/23 05:52:17;;;;;;;5.13;4.72;;;19.30;99.90;;;;;;5095544;28;20784;-61
2023/06/23 05:54:46;;;;;;;10.02;5.57;;;19.30;99.90;;;;;;5106700;28;20318;-61
2023/06/23 05:57:19;;;;;;;5.82;5.43;;;19.30;99.90;;;;;;5101933;28;20233;-61
2023/06/23 05:59:48;;;;;;;6.25;5.47;;;19.30;99.90;;;;;;5097129;28;20199;-62
2023/06/23 06:02:19;;;;;;;9.32;5.47;;;19.30;99.90;;;;;;5108832;28;20265;-63
2023/06/23 06:04:48;;;;;;;6.80;5.40;;;19.30;99.90;;;;;;5098066;28;20279;-62
2023/06/23 06:07:17;;;;;;;6.32;5.80;;;19.40;99.90;;;;;;5102392;28;20253;-62
2023/06/23 06:09:44;;;;;;;7.70;5.50;;;19.40;99.90;;;;;;5107884;28;20602;-62
2023/06/23 06:12:12;;;;;;;6.50;5.90;;;19.50;99.90;;;;;;5096894;28;20223;-62
2023/06/23 06:14:42;;;;;;;6.00;5.40;;;19.50;99.90;;;;;;5108101;28;20243;-62
2023/06/23 06:17:10;;;;;;;5.95;5.45;;;19.60;99.90;;;;;;5102895;28;20274;-62
2023/06/23 06:19:38;;;;;;;8.02;5.82;;;19.60;99.90;;;;;;5099983;28;20261;-61
2023/06/23 06:22:06;;;;;;;7.07;5.18;;;19.70;99.90;;;;;;5109714;28;20203;-62
2023/06/23 06:24:34;;;;;;;6.20;5.53;;;19.80;99.90;;;;;;5097515;28;20642;-61
2023/06/23 06:27:02;;;;;;;10.95;5.80;;;19.90;99.90;;;;;;5112127;28;20261;-60
2023/06/23 06:29:30;;;;;;;8.93;6.00;;;20.10;99.90;;;;;;5106851;28;20199;-59
2023/06/23 06:31:59;;;;;;;6.80;6.15;;;20.10;99.90;;;;;;5096704;28;20237;-59
2023/06/23 06:34:27;;;;;;;6.35;5.68;;;20.10;99.90;;;;;;5092552;28;20212;-62
2023/06/23 06:36:55;;;;;;;5.22;4.80;;;20.10;99.90;;;;;;5094374;28;20228;-62
2023/06/23 06:39:23;;;;;;;11.80;5.00;;;20.20;99.90;;;;;;5104473;28;20196;-62
2023/06/23 06:41:51;;;;;;;6.93;5.00;;;20.20;99.90;;;;;;5097542;28;20705;-61
2023/06/23 06:44:19;;;;;;;7.88;4.97;;;20.20;99.90;;;;;;5108563;28;20666;-62
2023/06/23 06:46:47;;;;;;;9.65;5.72;;;20.10;99.90;;;;;;5097325;28;20227;-61
2023/06/23 06:49:16;;;;;;;5.43;4.95;;;20.10;99.90;;;;;;5102491;28;20243;-61
2023/06/23 06:51:44;;;;;;;5.22;4.90;;;20.10;99.90;;;;;;5106683;28;20204;-62
2023/06/23 06:54:12;;;;;;;10.13;6.22;;;20.10;99.90;;;;;;5095865;28;20312;-61
2023/06/23 06:56:41;;;;;;;6.47;5.60;;;20.00;99.90;;;;;;5107121;28;20227;-62
2023/06/23 06:59:09;;;;;;;8.82;5.55;;;20.00;99.90;;;;;;5102101;28;20248;-62
2023/06/23 07:01:37;;;;;;;6.78;5.80;;;20.10;99.90;;;;;;5099252;28;20297;-62
2023/06/23 07:04:05;;;;;;;6.15;5.68;;;20.20;99.90;;;;;;5089950;22;20336;-61
2023/06/23 07:06:36;;;;;;;5.82;5.20;;;20.30;99.90;;;;;;5087797;28;20286;-61
2023/06/23 07:09:05;;;;;;;6.38;5.63;;;20.30;99.90;;;;;;5081088;28;20905;-61
2023/06/23 07:11:33;;;;;;;6.55;5.97;;;20.40;99.90;;;;;;5079714;28;20204;-62
2023/06/23 07:14:00;;;;;;;7.05;6.20;;;20.50;99.90;;;;;;5088567;28;20276;-61
2023/06/23 07:16:33;;;;;;;6.55;5.95;;;20.50;99.90;;;;;;5059323;28;20663;-61
2023/06/23 07:19:01;;;;;;;6.88;6.05;;;20.50;99.90;;;;;;5091348;28;20245;-60
2023/06/23 07:21:29;;;;;;;6.75;6.05;;;20.50;99.90;;;;;;5092060;28;20285;-62
2023/06/23 07:23:58;;;;;;;7.88;5.82;;;20.50;99.90;;;;;;5092275;28;20703;-60
2023/06/23 07:26:26;;;;;;;7.93;7.00;;;20.50;99.90;;;;;;5091774;28;20239;-61
2023/06/23 07:28:54;;;;;;;7.10;6.50;;;20.60;99.90;;;;;;5092452;28;20228;-61
2023/06/23 07:31:25;;;;;;;6.57;5.95;;;20.60;99.90;;;;;;5092130;28;20203;-61
2023/06/23 07:33:53;;;;;;;8.75;5.93;;;20.70;99.90;;;;;;5092170;28;20224;-61
2023/06/23 07:36:21;;;;;;;7.20;6.50;;;20.70;99.90;;;;;;5090171;28;20228;-60
2023/06/23 07:38:49;;;;;;;8.30;6.32;;;20.80;99.90;;;;;;5091524;28;20653;-60
2023/06/23 07:41:18;;;;;;;9.10;6.95;;;21.00;99.90;;;;;;5091885;28;20631;-61
2023/06/23 07:43:46;;;;;;;8.18;6.30;;;21.10;99.90;;;;;;5092122;28;20255;-61
2023/06/23 07:46:14;;;;;;;6.93;6.20;;;21.20;99.90;;;;;;5091689;28;20228;-61
2023/06/23 07:48:43;;;;;;;6.43;5.82;;;21.30;99.90;;;;;;5091965;28;20203;-60
2023/06/23 07:51:11;;;;;;;7.05;6.40;;;21.30;99.90;;;;;;5091813;28;20200;-61
2023/06/23 07:53:39;;;;;;;6.45;5.65;;;21.20;99.90;;;;;;5091603;28;20219;-61
2023/06/23 07:56:07;;;;;;;9.18;6.53;;;21.20;99.90;;;;;;5091374;28;20219;-61
2023/06/23 07:58:36;;;;;;;7.10;6.45;;;21.20;99.90;;;;;;5091992;28;20389;-61
2023/06/23 08:01:06;;;;;;;7.13;6.38;;;21.30;99.90;;;;;;5091735;28;20667;-61
2023/06/23 08:03:34;;;;;;;6.03;5.40;;;21.50;99.90;;;;;;5091629;28;20670;-60
2023/06/23 08:06:03;;;;;;;6.68;5.88;;;21.70;99.90;;;;;;5091161;28;20667;-61
2023/06/23 08:08:32;;;;;;;8.55;6.43;;;21.80;99.90;;;;;;5091921;28;20200;-60
2023/06/23 08:11:00;;;;;;;11.93;6.60;;;21.90;99.90;;;;;;5091685;28;20228;-61
2023/06/23 08:13:28;;;;;;;7.20;6.53;;;21.90;99.90;;;;;;5091624;28;20830;-61
2023/06/23 08:15:58;;;;;;;6.50;5.80;;;21.80;99.90;;;;;;5091394;28;20253;-61
2023/06/23 08:18:26;;;;;;;6.50;6.00;;;21.90;99.90;;;;;;5091629;28;20196;-61
2023/06/23 08:20:55;;;;;;;6.60;6.00;;;22.00;99.90;;;;;;5091700;28;20192;-61
2023/06/23 08:23:23;;;;;;;8.85;6.32;;;22.00;99.90;;;;;;5091771;28;20315;-61
2023/06/23 08:25:51;;;;;;;6.53;5.85;;;22.10;99.90;;;;;;5091148;28;20822;-61
2023/06/23 08:28:18;;;;;;;6.88;6.20;;;22.10;99.90;;;;;;5091583;28;20216;-61
2023/06/23 08:30:46;;;;;;;7.55;5.70;;;22.10;99.90;;;;;;5091434;28;20265;-61
2023/06/23 08:33:16;;;;;;;8.80;6.10;;;22.10;99.90;;;;;;5091210;28;20215;-61
2023/06/23 08:35:44;;;;;;;6.63;6.13;;;22.30;99.90;;;;;;5091082;28;20273;-60
2023/06/23 08:38:13;;;;;;;7.25;6.28;;;22.50;99.90;;;;;;5089797;28;20203;-61
2023/06/23 08:40:41;;;;;;;12.73;6.35;;;22.60;99.90;;;;;;5091312;28;20646;-61
2023/06/23 08:43:10;;;;;;;7.55;5.97;;;22.70;99.90;;;;;;5091376;28;20249;-61
2023/06/23 08:45:39;;;;;;;7.13;5.85;;;22.80;99.90;;;;;;5090725;28;20663;-61
2023/06/23 08:48:08;;;;;;;7.82;5.65;;;22.90;99.90;;;;;;5091454;28;20253;-61
2023/06/23 08:50:37;;;;;;;6.55;5.95;;;22.90;99.90;;;;;;5091233;28;20682;-61
2023/06/23 08:53:05;;;;;;;6.40;5.90;;;23.00;99.90;;;;;;5091490;28;20273;-61
2023/06/23 08:55:33;;;;;;;7.32;5.88;;;23.10;99.90;;;;;;5090613;28;20250;-61
2023/06/23 08:58:02;;;;;;;8.65;6.22;;;23.10;99.90;;;;;;5090957;28;20200;-61
2023/06/23 09:00:30;;;;;;;6.65;6.05;;;23.00;99.90;;;;;;5091327;28;20196;-61
2023/06/23 09:02:58;;;;;;;6.90;6.15;;;23.00;99.90;;;;;;5091103;28;20234;-61
2023/06/23 09:05:26;;;;;;;6.15;5.30;;;22.90;99.90;;;;;;5091013;28;20216;-61
2023/06/23 09:07:55;;;;;;;7.10;6.07;;;23.00;99.90;;;;;;5094155;28;20671;-61
2023/06/23 09:10:24;;;;;;;7.32;5.70;;;23.20;99.90;;;;;;5094813;28;20227;-61
2023/06/23 09:13:14;;;;;;;6.53;5.97;;;23.30;99.90;;;;;;5094785;28;20226;-61
2023/06/23 09:15:44;;;;;;;9.55;5.63;;;23.50;99.90;;;;;;5094341;28;20251;-62
2023/06/23 09:18:28;;;;;;;6.60;5.55;;;23.50;99.90;;;;;;5061701;28;20200;-61
2023/06/23 09:20:56;;;;;;;6.13;5.55;;;23.50;99.90;;;;;;5094422;28;20205;-61
2023/06/23 09:23:26;;;;;;;5.90;5.50;;;23.60;99.90;;;;;;5094467;28;20220;-61
2023/06/23 09:25:54;;;;;;;8.75;6.20;;;23.80;99.90;;;;;;5094162;28;20663;-61
2023/06/23 09:28:27;;;;;;;7.50;5.65;;;23.70;99.90;;;;;;5094614;28;20199;-61
2023/06/23 09:30:56;;;;;;;6.00;5.50;;;23.80;99.90;;;;;;5094361;28;20292;-61
2023/06/23 09:33:25;;;;;;;5.57;5.05;;;23.80;99.90;;;;;;5094127;28;20219;-61
2023/06/23 09:35:54;;;;;;;8.52;5.97;;;23.90;99.90;;;;;;5093204;28;20269;-60
2023/06/23 09:38:22;;;;;;;5.55;5.05;;;24.00;99.90;;;;;;5093463;28;20628;-61
2023/06/23 09:41:04;;;;;;;5.25;4.93;;;24.20;99.90;;;;;;5094320;28;20607;-61
2023/06/23 09:43:38;;;;;;;5.72;5.32;;;24.20;99.90;;;;;;5094181;28;20255;-61
2023/06/23 09:46:06;;;;;;;5.63;5.13;;;24.30;99.90;;;;;;5093623;28;20671;-61
2023/06/23 09:48:38;;;;;;;5.88;5.38;;;24.50;99.90;;;;;;5094346;28;20196;-61
2023/06/23 09:51:06;;;;;;;6.00;5.35;;;24.60;99.90;;;;;;5094216;28;20196;-61
2023/06/23 09:53:35;;;;;;;6.40;5.90;;;24.60;99.90;;;;;;5094081;28;20224;-61
2023/06/23 09:56:05;;;;;;;5.70;5.30;;;24.60;99.90;;;;;;5093574;28;20251;-61
2023/06/23 09:58:37;;;;;;;8.20;5.68;;;24.40;99.90;;;;;;5093732;28;20277;-61
2023/06/23 10:01:07;;;;;;;6.07;5.10;;;24.10;99.90;;;;;;5094012;28;20231;-61
2023/06/23 10:03:42;;;;;;;6.10;5.38;;;24.10;99.90;;;;;;5093808;28;20240;-61
2023/06/23 10:06:21;;;;;;;7.13;4.95;;;24.30;99.90;;;;;;5093490;28;20200;-61
2023/06/23 10:08:48;;;;;;;8.63;5.50;;;24.70;99.90;;;;;;5093572;28;20690;-61
2023/06/23 10:11:18;;;;;;;6.05;5.18;;;25.20;99.90;;;;;;5093827;28;20239;-61
2023/06/23 10:13:46;;;;;;;5.72;5.13;;;25.50;99.90;;;;;;5093543;28;20715;-61
2023/06/23 10:16:14;;;;;;;8.98;5.40;;;25.70;99.90;;;;;;5093188;28;20227;-62
2023/06/23 10:18:42;;;;;;;6.35;5.10;;;25.80;99.90;;;;;;5092313;28;20231;-61
2023/06/23 10:21:10;;;;;;;6.30;5.70;;;25.60;99.90;;;;;;5082421;28;20648;-61
2023/06/23 10:23:38;;;;;;;5.28;4.82;;;25.40;99.90;;;;;;5077133;28;20256;-61
2023/06/23 10:26:06;;;;;;;5.30;4.88;;;25.20;99.90;;;;;;5090238;28;20274;-61
2023/06/23 10:28:36;;;;;;;5.75;5.13;;;25.30;99.90;;;;;;5093456;28;20196;-61
2023/06/23 10:31:04;;;;;;;5.15;4.75;;;25.70;99.90;;;;;;5085985;28;20201;-61
2023/06/23 10:33:32;;;;;;;7.30;5.85;;;26.10;99.90;;;;;;5076137;28;20225;-61
2023/06/23 10:36:00;;;;;;;6.35;5.85;;;26.00;99.90;;;;;;5076748;28;20750;-61
2023/06/23 10:38:28;;;;;;;6.95;5.30;;;25.60;99.90;;;;;;5059237;28;20232;-61
2023/06/23 10:40:56;;;;;;;5.43;4.93;;;25.10;99.90;;;;;;5077007;28;20243;-61
2023/06/23 10:43:25;;;;;;;5.28;4.53;;;24.80;99.90;;;;;;5084272;28;20255;-62
2023/06/23 10:45:54;;;;;;;5.72;5.15;;;24.50;99.90;;;;;;5092678;28;20283;-61
2023/06/23 10:48:22;;;;;;;5.90;5.30;;;24.40;99.90;;;;;;5085760;28;20678;-61
2023/06/23 10:50:50;;;;;;;5.07;4.68;;;24.40;99.90;;;;;;5071680;28;20288;-61
2023/06/23 10:53:20;;;;;;;7.25;5.13;;;24.30;99.90;;;;;;5072681;28;20922;-61
2023/06/23 10:55:48;;;;;;;4.78;4.43;;;24.20;99.90;;;;;;5071765;28;20216;-61
2023/06/23 10:58:48;;;;;;;5.20;4.80;;;24.10;99.90;;;;;;5071548;28;20200;-61
2023/06/23 11:01:17;;;;;;;5.30;4.82;;;24.00;99.90;;;;;;5076913;28;20282;-61
2023/06/23 11:03:45;;;;;;;5.18;4.78;;;23.90;99.90;;;;;;5086851;28;20231;-61
2023/06/23 11:06:13;;;;;;;4.60;4.28;;;23.90;99.90;;;;;;5092350;28;20223;-61
2023/06/23 11:08:41;;;;;;;5.80;5.05;;;23.80;99.90;;;;;;5092341;28;20613;-62
2023/06/23 11:11:10;;;;;;;5.65;5.22;;;23.70;99.90;;;;;;5073340;28;20203;-62
2023/06/23 11:13:45;;;;;;;4.80;4.50;;;23.70;99.90;;;;;;5072395;28;20769;-62
2023/06/23 11:16:15;;;;;;;5.35;4.55;;;23.70;99.90;;;;;;5077625;28;20219;-62
2023/06/23 11:18:52;;;;;;;6.20;5.32;;;24.10;99.90;;;;;;5092458;28;20196;-63
2023/06/23 11:21:29;;;;;;;5.18;4.72;;;24.40;99.90;;;;;;5092231;28;20200;-63
2023/06/23 11:24:13;;;;;;;6.60;4.22;;;24.50;99.90;;;;;;5091216;28;20228;-62
2023/06/23 11:26:45;;;;;;;5.95;4.32;;;24.50;99.90;;;;;;5062818;28;20192;-62
2023/06/23 11:29:14;;;;;;;4.57;4.07;;;24.30;99.90;;;;;;5081234;28;20197;-62
2023/06/23 11:32:17;;;;;;;4.25;4.00;;;24.10;99.90;;;;;;5068515;28;20204;-62
2023/06/23 11:34:51;;;;;;;4.18;3.88;;;24.00;99.90;;;;;;5067972;28;20216;-62
2023/06/23 11:37:19;;;;;;;4.78;4.22;;;24.20;99.90;;;;;;5065956;28;20600;-63
2023/06/23 11:39:47;;;;;;;5.75;3.97;;;24.60;99.90;;;;;;5076373;28;20243;-62
2023/06/23 11:42:15;;;;;;;4.45;3.97;;;24.70;99.90;;;;;;5073951;28;20664;-62
2023/06/23 11:44:43;;;;;;;4.22;3.90;;;24.90;99.90;;;;;;5091494;28;20247;-62
2023/06/23 11:47:12;;;;;;;4.40;4.00;;;25.00;99.90;;;;;;5091985;28;20563;-62
2023/06/23 11:49:39;;;;;;;4.38;4.07;;;25.10;99.90;;;;;;5091234;28;20854;-63
2023/06/23 11:52:09;;;;;;;4.10;3.60;;;25.00;99.90;;;;;;5091840;28;20200;-63
2023/06/23 11:54:38;;;;;;;3.75;3.45;;;24.80;99.90;;;;;;5089199;28;20243;-62
2023/06/23 11:57:06;;;;;;;3.85;3.55;;;24.70;99.90;;;;;;5091695;28;20216;-63
2023/06/23 11:59:35;;;;;;;4.38;3.63;;;25.50;99.90;;;;;;5083936;28;20318;-63
2023/06/23 12:02:06;;;;;;;3.85;3.60;;;26.40;99.90;;;;;;5091553;28;20200;-62
2023/06/23 12:04:35;;;;;;;3.72;3.53;;;26.90;99.90;;;;;;5091377;28;20741;-62
2023/06/23 12:07:03;;;;;;;4.32;3.85;;;26.70;99.90;;;;;;5091598;28;20245;-63
2023/06/23 12:09:33;;;;;;;5.18;4.25;;;26.40;99.90;;;;;;5091674;28;20852;-63
2023/06/23 12:12:01;;;;;;;4.38;3.95;;;26.10;99.90;;;;;;5091366;28;20273;-63
2023/06/23 12:14:29;;;;;;;3.85;3.63;;;25.90;99.90;;;;;;5055647;28;20661;-62
2023/06/23 12:17:07;;;;;;;5.28;3.60;;;25.90;99.90;;;;;;5079137;28;20276;-62
2023/06/23 12:19:35;;;;;;;3.67;3.40;;;26.60;99.90;;;;;;5091757;28;20207;-63
2023/06/23 12:22:04;;;;;;;3.63;3.33;;;27.50;99.90;;;;;;5091493;28;20204;-63
2023/06/23 12:24:33;;;;;;;3.83;3.50;;;28.20;99.90;;;;;;5091196;28;20223;-63
2023/06/23 12:27:01;;;;;;;3.28;2.97;;;28.80;99.90;;;;;;5091394;28;20192;-63
2023/06/23 12:29:31;;;;;;;3.30;3.08;;;29.10;99.90;;;;;;5091372;28;20295;-63
2023/06/23 12:31:59;;;;;;;4.40;4.00;;;28.40;99.90;;;;;;5077065;28;20295;-63
2023/06/23 12:34:32;;;;;;;3.75;3.45;;;27.80;99.90;;;;;;5058098;28;20593;-63
2023/06/23 12:37:04;;;;;;;3.83;3.53;;;27.20;99.90;;;;;;5091147;28;20251;-63
2023/06/23 12:39:33;;;;;;;4.00;3.60;;;26.80;99.90;;;;;;5091561;28;20196;-63
2023/06/23 12:42:01;;;;;;;4.88;3.90;;;26.70;99.90;;;;;;5086287;28;20247;-63
2023/06/23 12:44:32;;;;;;;4.57;3.70;;;27.30;99.90;;;;;;5073766;28;20216;-63
2023/06/23 12:47:01;;;;;;;3.72;3.45;;;28.00;99.90;;;;;;5095349;28;20243;-63
2023/06/23 12:49:31;;;;;;;6.72;3.83;;;28.70;99.90;;;;;;5094966;28;20200;-63
2023/06/23 12:52:00;;;;;;;3.78;3.58;;;29.20;99.90;;;;;;5095332;28;20231;-63
2023/06/23 12:54:28;;;;;;;3.80;3.50;;;29.80;99.90;;;;;;5062324;28;20637;-65
2023/06/23 12:56:58;;;;;;;5.78;3.22;;;30.30;99.90;;;;;;5094798;28;20199;-64